createdAt,value
2019-05-29T00:00:41.882Z,92.70
2019-05-29T00:03:12.488Z,92.80
2019-05-29T00:05:43.234Z,92.90
2019-05-29T00:08:12.747Z,92.70
2019-05-29T00:10:43.027Z,92.80
2019-05-29T00:13:12.654Z,92.90
2019-05-29T00:15:42.214Z,92.90
2019-05-29T00:18:12.497Z,93.00
2019-05-29T00:20:42.318Z,93.00
2019-05-29T00:23:12.556Z,93.00
2019-05-29T00:25:42.149Z,93.10
2019-05-29T00:28:12.642Z,93.10
2019-05-29T00:30:42.266Z,93.20
2019-05-29T00:33:12.155Z,93.00
2019-05-29T00:35:41.943Z,93.00
2019-05-29T00:38:12.564Z,93.00
2019-05-29T00:40:42.371Z,93.00
2019-05-29T00:43:13.168Z,93.20
2019-05-29T00:45:42.961Z,93.20
2019-05-29T00:48:13.898Z,93.40
2019-05-29T00:50:43.592Z,93.30
2019-05-29T00:53:14.212Z,93.30
2019-05-29T00:55:45.089Z,93.50
2019-05-29T00:58:14.937Z,93.30
2019-05-29T01:00:44.531Z,93.40
2019-05-29T01:03:15.846Z,93.30
2019-05-29T01:05:46.622Z,93.30
2019-05-29T01:08:18.225Z,93.30
2019-05-29T01:10:48.136Z,93.30
2019-05-29T01:13:17.818Z,93.30
2019-05-29T01:15:47.374Z,93.40
2019-05-29T01:18:17.816Z,93.40
2019-05-29T01:20:48.560Z,93.50
2019-05-29T01:23:18.310Z,93.50
2019-05-29T01:25:48.987Z,93.40
2019-05-29T01:28:18.984Z,93.30
2019-05-29T01:30:51.436Z,93.30
2019-05-29T01:33:20.551Z,93.50
2019-05-29T01:35:51.178Z,93.40
2019-05-29T01:38:21.550Z,93.50
2019-05-29T01:40:51.464Z,93.50
2019-05-29T01:43:21.477Z,93.50
2019-05-29T01:45:51.183Z,93.60
2019-05-29T01:48:21.594Z,93.50
2019-05-29T01:50:51.447Z,93.50
2019-05-29T01:53:21.725Z,93.60
2019-05-29T01:55:52.741Z,93.80
2019-05-29T01:58:23.843Z,93.50
2019-05-29T02:00:53.577Z,93.50
2019-05-29T02:03:24.381Z,93.50
2019-05-29T02:05:53.942Z,93.60
2019-05-29T02:08:24.286Z,93.50
2019-05-29T02:10:54.041Z,93.60
2019-05-29T02:13:23.623Z,94.00
2019-05-29T02:15:53.194Z,93.60
2019-05-29T02:18:23.014Z,93.70
2019-05-29T02:20:52.723Z,93.80
2019-05-29T02:23:22.290Z,93.90
2019-05-29T02:25:51.911Z,93.60
2019-05-29T02:28:22.559Z,93.60
2019-05-29T02:30:52.419Z,93.70
2019-05-29T02:33:24.135Z,93.70
2019-05-29T02:35:53.736Z,93.90
2019-05-29T02:38:24.937Z,94.00
2019-05-29T02:40:54.631Z,93.90
2019-05-29T02:43:26.002Z,94.00
2019-05-29T02:45:55.457Z,94.10
2019-05-29T02:48:27.280Z,93.90
2019-05-29T02:50:56.671Z,93.90
2019-05-29T02:53:28.674Z,93.90
2019-05-29T02:55:58.490Z,94.00
2019-05-29T02:58:29.750Z,94.00
2019-05-29T03:00:59.239Z,94.10
2019-05-29T03:03:31.625Z,94.10
2019-05-29T03:06:00.062Z,94.00
2019-05-29T03:08:32.440Z,94.00
2019-05-29T03:11:01.989Z,93.90
2019-05-29T03:13:31.888Z,94.00
2019-05-29T03:16:11.752Z,94.00
2019-05-29T03:18:35.052Z,94.10
2019-05-29T03:21:05.234Z,94.00
2019-05-29T03:23:36.078Z,94.10
2019-05-29T03:26:06.051Z,94.00
2019-05-29T03:28:35.543Z,94.00
2019-05-29T03:31:05.039Z,93.90
2019-05-29T03:33:53.892Z,94.00
2019-05-29T03:36:23.383Z,94.10
2019-05-29T03:38:52.955Z,94.10
2019-05-29T03:41:22.583Z,94.10
2019-05-29T03:43:52.102Z,94.10
2019-05-29T03:46:31.714Z,94.10
2019-05-29T03:48:52.999Z,94.10
2019-05-29T03:51:22.567Z,94.20
2019-05-29T03:53:52.138Z,94.10
2019-05-29T03:56:21.704Z,94.20
2019-05-29T03:58:51.261Z,94.20
2019-05-29T04:01:20.819Z,94.10
2019-05-29T04:03:50.313Z,94.10
2019-05-29T04:06:19.814Z,94.20
2019-05-29T04:08:49.306Z,94.20
2019-05-29T04:11:18.878Z,94.30
2019-05-29T04:13:48.636Z,94.40
2019-05-29T04:16:21.364Z,94.50
2019-05-29T04:18:52.658Z,94.50
2019-05-29T04:21:25.133Z,94.50
2019-05-29T04:23:55.899Z,94.60
2019-05-29T04:26:25.872Z,94.60
2019-05-29T04:28:55.434Z,94.60
2019-05-29T04:31:25.079Z,94.60
2019-05-29T04:33:54.567Z,94.50
2019-05-29T04:36:24.128Z,94.40
2019-05-29T04:38:53.612Z,94.30
2019-05-29T04:41:23.264Z,94.30
2019-05-29T04:43:56.858Z,94.40
2019-05-29T04:46:24.207Z,94.40
2019-05-29T04:48:53.762Z,94.30
2019-05-29T04:51:23.339Z,94.30
2019-05-29T04:53:52.995Z,94.20
2019-05-29T04:56:22.554Z,94.00
2019-05-29T04:58:53.210Z,94.20
2019-05-29T05:01:22.699Z,94.20
2019-05-29T05:03:52.198Z,94.20
2019-05-29T05:06:21.769Z,94.10
2019-05-29T05:08:51.328Z,94.20
2019-05-29T05:11:20.820Z,94.20
2019-05-29T05:13:50.395Z,94.20
2019-05-29T05:16:19.975Z,94.20
2019-05-29T05:18:49.531Z,94.20
2019-05-29T05:21:19.097Z,94.20
2019-05-29T05:23:48.618Z,94.60
2019-05-29T05:26:18.203Z,94.10
2019-05-29T05:28:47.904Z,94.10
2019-05-29T05:31:17.450Z,94.00
2019-05-29T05:33:47.097Z,94.00
2019-05-29T05:36:16.727Z,93.80
2019-05-29T05:38:46.214Z,93.90
2019-05-29T05:41:15.708Z,94.00
2019-05-29T05:43:45.194Z,93.80
2019-05-29T05:46:14.681Z,93.80
2019-05-29T05:48:44.171Z,93.70
2019-05-29T05:51:13.658Z,93.50
2019-05-29T05:53:43.147Z,93.50
2019-05-29T05:56:12.659Z,93.70
2019-05-29T05:58:42.526Z,93.50
2019-05-29T06:01:13.132Z,93.50
2019-05-29T06:03:42.833Z,93.20
2019-05-29T06:06:12.506Z,93.40
2019-05-29T06:08:42.577Z,93.20
2019-05-29T06:11:12.299Z,93.20
2019-05-29T06:13:42.732Z,93.30
2019-05-29T06:16:12.590Z,93.00
2019-05-29T06:18:42.995Z,93.10
2019-05-29T06:21:12.788Z,93.00
2019-05-29T06:23:43.477Z,93.00
2019-05-29T06:26:13.763Z,93.10
2019-05-29T06:28:43.751Z,92.90
2019-05-29T06:31:13.298Z,92.60
2019-05-29T06:33:44.226Z,92.70
2019-05-29T06:36:13.804Z,92.80
2019-05-29T06:38:44.372Z,92.70
2019-05-29T06:41:14.150Z,92.40
2019-05-29T06:43:44.344Z,92.50
2019-05-29T06:46:14.355Z,92.50
2019-05-29T06:48:57.542Z,92.30
2019-05-29T06:51:16.090Z,92.40
2019-05-29T06:53:45.659Z,92.30
2019-05-29T06:56:16.347Z,92.20
2019-05-29T06:58:46.846Z,92.10
2019-05-29T07:01:17.655Z,92.00
2019-05-29T07:03:48.154Z,91.40
2019-05-29T07:06:17.893Z,90.80
2019-05-29T07:08:49.690Z,90.90
2019-05-29T07:11:18.636Z,91.10
2019-05-29T07:13:50.393Z,91.00
2019-05-29T07:16:19.437Z,91.20
2019-05-29T07:19:23.015Z,91.10
2019-05-29T07:21:20.327Z,91.00
2019-05-29T07:23:49.955Z,91.00
2019-05-29T07:26:19.526Z,90.70
2019-05-29T07:29:07.554Z,90.70
2019-05-29T07:31:20.446Z,90.90
2019-05-29T07:33:50.002Z,90.60
2019-05-29T07:36:19.576Z,90.70
2019-05-29T07:39:01.761Z,90.90
2019-05-29T07:41:20.499Z,90.50
2019-05-29T07:43:50.086Z,89.70
2019-05-29T07:46:19.650Z,89.00
2019-05-29T07:48:50.319Z,89.30
2019-05-29T07:51:20.872Z,87.50
2019-05-29T07:53:50.427Z,88.00
2019-05-29T07:56:22.942Z,87.70
2019-05-29T07:59:01.903Z,88.20
2019-05-29T08:01:23.559Z,88.40
2019-05-29T08:03:53.131Z,88.50
2019-05-29T08:06:22.957Z,88.50
2019-05-29T08:08:52.535Z,89.30
2019-05-29T08:11:22.106Z,88.70
2019-05-29T08:13:52.842Z,88.70
2019-05-29T08:16:22.408Z,88.40
2019-05-29T08:18:54.867Z,87.60
2019-05-29T08:21:24.443Z,87.20
2019-05-29T08:23:54.075Z,87.50
2019-05-29T08:26:23.684Z,86.70
2019-05-29T08:28:53.236Z,83.60
2019-05-29T08:31:22.795Z,82.30
2019-05-29T08:33:52.307Z,83.40
2019-05-29T08:36:21.867Z,82.50
2019-05-29T08:38:51.897Z,84.40
2019-05-29T08:41:23.132Z,84.10
2019-05-29T08:43:52.942Z,84.30
2019-05-29T08:46:23.517Z,85.30
2019-05-29T08:48:53.578Z,85.60
2019-05-29T08:51:24.136Z,86.30
2019-05-29T08:53:54.844Z,84.60
2019-05-29T08:56:24.511Z,83.90
2019-05-29T08:58:55.084Z,84.00
2019-05-29T09:01:24.591Z,84.10
2019-05-29T09:03:54.166Z,81.30
2019-05-29T09:06:23.799Z,80.20
2019-05-29T09:08:55.235Z,76.50
2019-05-29T09:11:24.922Z,76.60
2019-05-29T09:13:54.571Z,75.00
2019-05-29T09:16:24.086Z,74.70
2019-05-29T09:18:53.703Z,73.80
2019-05-29T09:21:26.521Z,72.80
2019-05-29T09:23:58.527Z,73.70
2019-05-29T09:26:26.254Z,74.30
2019-05-29T09:28:55.835Z,75.70
2019-05-29T09:31:25.471Z,75.60
2019-05-29T09:33:55.040Z,76.40
2019-05-29T09:36:24.753Z,77.20
2019-05-29T09:38:55.568Z,77.20
2019-05-29T09:41:25.639Z,77.60
2019-05-29T09:43:59.828Z,79.10
2019-05-29T09:46:26.708Z,78.80
2019-05-29T09:49:01.292Z,78.30
2019-05-29T09:51:28.131Z,78.00
2019-05-29T09:53:59.457Z,75.90
2019-05-29T09:56:29.280Z,72.50
2019-05-29T09:59:01.769Z,68.10
2019-05-29T10:01:31.718Z,69.90
2019-05-29T10:04:03.450Z,72.50
2019-05-29T10:06:32.841Z,71.90
2019-05-29T10:09:03.652Z,72.40
2019-05-29T10:11:33.596Z,73.80
2019-05-29T10:14:04.955Z,72.40
2019-05-29T10:16:34.428Z,73.50
2019-05-29T10:19:04.961Z,71.10
2019-05-29T10:21:40.836Z,68.50
2019-05-29T10:24:06.267Z,66.80
2019-05-29T10:26:35.887Z,68.50
2019-05-29T10:29:09.191Z,70.40
2019-05-29T10:31:37.800Z,67.70
2019-05-29T10:34:07.301Z,66.10
2019-05-29T10:36:36.865Z,68.50
2019-05-29T10:39:07.919Z,64.00
2019-05-29T10:41:37.483Z,64.70
2019-05-29T10:44:07.080Z,68.30
2019-05-29T10:46:36.650Z,68.40
2019-05-29T10:49:06.218Z,69.60
2019-05-29T10:51:35.862Z,68.10
2019-05-29T10:54:05.959Z,67.70
2019-05-29T10:56:35.516Z,66.00
2019-05-29T10:59:05.174Z,63.20
2019-05-29T11:01:34.915Z,63.30
2019-05-29T11:04:04.479Z,64.10
2019-05-29T11:06:34.054Z,61.70
2019-05-29T11:09:04.920Z,64.80
2019-05-29T11:11:34.481Z,64.20
2019-05-29T11:14:04.201Z,64.20
2019-05-29T11:16:33.777Z,63.30
2019-05-29T11:19:03.375Z,64.50
2019-05-29T11:21:32.976Z,64.40
2019-05-29T11:24:02.632Z,64.30
2019-05-29T11:26:32.242Z,63.90
2019-05-29T11:29:01.778Z,59.90
2019-05-29T11:31:31.342Z,60.40
2019-05-29T11:34:01.066Z,58.40
2019-05-29T11:36:30.622Z,58.30
2019-05-29T11:39:05.342Z,58.50
2019-05-29T11:41:32.730Z,55.70
2019-05-29T11:44:03.227Z,59.10
2019-05-29T11:46:32.935Z,57.10
2019-05-29T11:49:03.652Z,58.00
2019-05-29T11:51:33.340Z,58.60
2019-05-29T11:54:03.040Z,57.30
2019-05-29T11:56:32.619Z,56.00
2019-05-29T11:59:03.131Z,56.90
2019-05-29T12:01:49.223Z,58.80
2019-05-29T12:04:21.597Z,61.10
2019-05-29T12:06:35.452Z,61.40
2019-05-29T12:09:10.295Z,60.70
2019-05-29T12:11:39.785Z,60.00
2019-05-29T12:14:09.390Z,59.90
2019-05-29T12:16:39.478Z,60.60
2019-05-29T12:19:09.104Z,59.80
2019-05-29T12:21:42.398Z,61.30
2019-05-29T12:24:09.770Z,58.10
2019-05-29T12:26:39.407Z,57.60
2019-05-29T12:29:11.620Z,58.70
2019-05-29T12:31:40.219Z,59.00
2019-05-29T12:34:18.696Z,58.00
2019-05-29T12:36:40.947Z,57.00
2019-05-29T12:39:10.503Z,57.40
2019-05-29T12:41:40.101Z,56.30
2019-05-29T12:44:09.671Z,54.20
2019-05-29T12:46:39.219Z,56.40
2019-05-29T12:49:08.786Z,57.80
2019-05-29T12:51:38.283Z,60.00
2019-05-29T12:54:07.846Z,60.60
2019-05-29T12:56:37.342Z,61.50
2019-05-29T12:59:06.929Z,61.30
2019-05-29T13:01:36.426Z,55.70
2019-05-29T13:04:05.943Z,54.30
2019-05-29T13:06:35.562Z,55.20
2019-05-29T13:09:07.597Z,52.30
2019-05-29T13:11:37.330Z,53.10
2019-05-29T13:14:06.886Z,54.40
2019-05-29T13:16:36.441Z,55.10
2019-05-29T13:19:07.071Z,57.20
2019-05-29T13:21:36.631Z,58.50
2019-05-29T13:24:25.506Z,59.20
2019-05-29T13:26:55.480Z,58.50
2019-05-29T13:29:26.247Z,56.40
2019-05-29T13:31:58.035Z,55.80
2019-05-29T13:34:27.018Z,56.10
2019-05-29T13:37:00.809Z,54.90
2019-05-29T13:39:29.876Z,54.40
2019-05-29T13:42:04.305Z,54.70
2019-05-29T13:44:30.317Z,52.30
2019-05-29T13:46:59.979Z,54.30
2019-05-29T13:49:29.496Z,55.00
2019-05-29T13:52:02.237Z,55.40
2019-05-29T13:54:31.742Z,56.60
2019-05-29T13:57:02.492Z,54.60
2019-05-29T13:59:32.613Z,55.10
2019-05-29T14:02:05.815Z,54.10
2019-05-29T14:04:33.411Z,55.40
2019-05-29T14:07:03.412Z,55.40
2019-05-29T14:09:34.148Z,55.90
2019-05-29T14:12:05.086Z,54.20
2019-05-29T14:14:35.069Z,55.20
2019-05-29T14:17:04.696Z,55.80
2019-05-29T14:19:34.330Z,54.40
2019-05-29T14:22:04.987Z,53.80
2019-05-29T14:24:34.749Z,53.50
2019-05-29T14:27:05.463Z,54.10
2019-05-29T14:29:35.171Z,55.00
2019-05-29T14:32:05.113Z,55.00
2019-05-29T14:34:36.086Z,54.40
2019-05-29T14:37:06.209Z,55.50
2019-05-29T14:39:36.756Z,55.70
2019-05-29T14:42:08.247Z,56.60
2019-05-29T14:44:37.496Z,54.90
2019-05-29T14:47:08.016Z,54.90
2019-05-29T14:49:37.543Z,53.30
2019-05-29T14:52:07.116Z,54.90
2019-05-29T14:54:41.813Z,55.00
2019-05-29T14:57:20.091Z,55.90
2019-05-29T14:59:39.542Z,56.90
2019-05-29T15:02:19.831Z,56.20
2019-05-29T15:04:40.542Z,57.10
2019-05-29T15:07:10.091Z,56.60
2019-05-29T15:09:39.583Z,55.90
2019-05-29T15:12:10.039Z,56.50
2019-05-29T15:14:39.876Z,55.90
2019-05-29T15:17:10.837Z,56.40
2019-05-29T15:19:40.699Z,58.10
2019-05-29T15:22:11.416Z,57.00
2019-05-29T15:24:59.755Z,57.40
2019-05-29T15:27:14.118Z,56.30
2019-05-29T15:29:43.822Z,56.40
2019-05-29T15:32:14.535Z,55.50
2019-05-29T15:34:44.339Z,55.80
2019-05-29T15:37:16.991Z,54.00
2019-05-29T15:39:45.240Z,54.80
2019-05-29T15:42:15.104Z,55.60
2019-05-29T15:44:44.738Z,56.50
2019-05-29T15:47:14.972Z,57.10
2019-05-29T15:49:44.586Z,57.90
2019-05-29T15:52:15.251Z,57.90
2019-05-29T15:54:44.977Z,57.80
2019-05-29T15:57:15.233Z,58.10
2019-05-29T15:59:44.831Z,58.60
2019-05-29T16:02:15.633Z,59.00
2019-05-29T16:04:45.383Z,58.70
2019-05-29T16:07:16.006Z,59.10
2019-05-29T16:09:45.860Z,59.40
2019-05-29T16:12:16.682Z,57.90
2019-05-29T16:14:47.416Z,57.80
2019-05-29T16:17:17.326Z,57.20
2019-05-29T16:19:47.245Z,56.60
2019-05-29T16:22:16.739Z,57.60
2019-05-29T16:24:46.295Z,57.40
2019-05-29T16:27:16.079Z,57.30
2019-05-29T16:29:45.723Z,57.00
2019-05-29T16:32:16.117Z,57.20
2019-05-29T16:34:45.774Z,57.40
2019-05-29T16:37:15.431Z,56.20
2019-05-29T16:39:45.079Z,57.20
2019-05-29T16:42:15.784Z,56.20
2019-05-29T16:44:45.639Z,55.20
2019-05-29T16:47:16.422Z,55.60
2019-05-29T16:49:46.194Z,55.10
2019-05-29T16:52:16.805Z,56.50
2019-05-29T16:54:46.632Z,57.00
2019-05-29T16:57:17.236Z,58.50
2019-05-29T16:59:46.910Z,58.90
2019-05-29T17:02:17.779Z,59.70
2019-05-29T17:04:47.416Z,60.10
2019-05-29T17:07:18.095Z,60.50
2019-05-29T17:09:47.957Z,61.00
2019-05-29T17:12:18.403Z,60.90
2019-05-29T17:14:48.236Z,59.90
2019-05-29T17:17:18.632Z,58.90
2019-05-29T17:19:49.770Z,58.30
2019-05-29T17:22:20.853Z,57.90
2019-05-29T17:24:50.860Z,58.70
2019-05-29T17:27:21.306Z,58.50
2019-05-29T17:29:51.041Z,59.50
2019-05-29T17:32:23.304Z,59.20
2019-05-29T17:34:53.072Z,59.50
2019-05-29T17:37:23.121Z,60.20
2019-05-29T17:39:55.128Z,60.50
2019-05-29T17:42:24.683Z,61.00
2019-05-29T17:44:54.323Z,61.30
2019-05-29T17:47:23.995Z,61.40
2019-05-29T17:49:53.547Z,62.20
2019-05-29T17:52:23.943Z,63.00
2019-05-29T17:54:53.643Z,62.20
2019-05-29T17:57:23.906Z,62.70
2019-05-29T17:59:53.739Z,63.70
2019-05-29T18:02:24.468Z,63.20
2019-05-29T18:04:54.460Z,63.20
2019-05-29T18:07:26.799Z,62.60
2019-05-29T18:09:55.406Z,62.40
2019-05-29T18:12:25.118Z,62.00
2019-05-29T18:14:54.895Z,61.90
2019-05-29T18:17:25.480Z,61.80
2019-05-29T18:19:55.058Z,62.60
2019-05-29T18:22:25.628Z,63.00
2019-05-29T18:24:55.350Z,63.30
2019-05-29T18:27:25.981Z,63.30
2019-05-29T18:29:55.753Z,63.80
2019-05-29T18:32:26.561Z,64.20
2019-05-29T18:34:56.816Z,64.20
2019-05-29T18:37:26.492Z,64.20
2019-05-29T18:39:56.065Z,64.70
2019-05-29T18:42:26.063Z,65.70
2019-05-29T18:44:56.877Z,65.90
2019-05-29T18:47:27.245Z,65.00
2019-05-29T18:49:59.086Z,66.40
2019-05-29T18:52:32.744Z,66.70
2019-05-29T18:55:02.794Z,67.10
2019-05-29T18:57:33.174Z,67.20
2019-05-29T19:00:02.970Z,67.50
2019-05-29T19:02:34.078Z,68.20
2019-05-29T19:05:04.843Z,68.20
2019-05-29T19:07:34.575Z,68.30
2019-05-29T19:10:07.521Z,68.90
2019-05-29T19:12:37.141Z,68.60
2019-05-29T19:15:08.331Z,68.40
2019-05-29T19:17:37.923Z,68.50
2019-05-29T19:20:08.388Z,69.10
2019-05-29T19:22:37.962Z,69.00
2019-05-29T19:25:08.355Z,68.90
2019-05-29T19:27:41.797Z,69.80
2019-05-29T19:30:10.974Z,70.10
2019-05-29T19:32:40.536Z,70.00
2019-05-29T19:35:10.599Z,70.20
2019-05-29T19:37:40.236Z,70.50
2019-05-29T19:40:10.313Z,70.90
2019-05-29T19:42:39.954Z,70.50
2019-05-29T19:45:11.303Z,71.70
2019-05-29T19:47:40.965Z,71.90
2019-05-29T19:50:11.718Z,72.30
2019-05-29T19:52:41.418Z,72.10
2019-05-29T19:55:11.016Z,72.40
2019-05-29T19:57:54.919Z,72.20
2019-05-29T20:00:12.402Z,73.00
2019-05-29T20:02:42.029Z,73.30
2019-05-29T20:05:11.917Z,72.80
2019-05-29T20:07:41.553Z,73.30
2019-05-29T20:10:11.775Z,73.60
2019-05-29T20:12:41.403Z,73.30
2019-05-29T20:15:11.278Z,73.90
2019-05-29T20:17:43.519Z,74.00
2019-05-29T20:20:12.209Z,74.30
2019-05-29T20:22:41.866Z,74.30
2019-05-29T20:25:14.007Z,74.40
2019-05-29T20:27:43.792Z,74.40
2019-05-29T20:30:18.346Z,74.70
2019-05-29T20:32:49.316Z,74.90
2019-05-29T20:35:18.802Z,75.00
2019-05-29T20:37:48.994Z,75.10
2019-05-29T20:40:18.589Z,75.30
2019-05-29T20:42:48.227Z,75.60
2019-05-29T20:45:17.837Z,75.90
2019-05-29T20:47:47.483Z,76.00
2019-05-29T20:50:17.534Z,76.80
2019-05-29T20:52:47.278Z,76.90
2019-05-29T20:55:17.012Z,76.90
2019-05-29T20:57:46.575Z,77.10
2019-05-29T21:00:17.309Z,77.20
2019-05-29T21:02:46.943Z,77.50
2019-05-29T21:05:18.077Z,77.60
2019-05-29T21:07:47.636Z,78.00
2019-05-29T21:10:17.327Z,77.70
2019-05-29T21:12:47.688Z,77.80
2019-05-29T21:15:18.348Z,77.80
2019-05-29T21:17:47.988Z,78.30
2019-05-29T21:20:17.749Z,78.10
2019-05-29T21:22:48.065Z,78.30
2019-05-29T21:25:19.345Z,78.40
2019-05-29T21:27:49.678Z,78.70
2019-05-29T21:30:22.340Z,78.50
2019-05-29T21:32:53.099Z,78.60
2019-05-29T21:35:22.591Z,79.30
2019-05-29T21:37:52.172Z,79.30
2019-05-29T21:40:21.719Z,79.60
2019-05-29T21:42:51.354Z,79.80
2019-05-29T21:45:21.311Z,79.70
2019-05-29T21:47:50.870Z,79.60
2019-05-29T21:50:20.507Z,79.90
2019-05-29T21:52:49.990Z,80.00
2019-05-29T21:55:19.486Z,79.70
2019-05-29T21:57:50.333Z,80.00
2019-05-29T22:00:22.214Z,80.40
2019-05-29T22:02:52.567Z,80.30
2019-05-29T22:05:22.031Z,80.70
2019-05-29T22:07:52.867Z,80.70
2019-05-29T22:10:26.087Z,80.80
2019-05-29T22:12:54.401Z,81.30
2019-05-29T22:15:25.158Z,81.30
2019-05-29T22:17:54.970Z,81.20
2019-05-29T22:20:24.550Z,81.60
2019-05-29T22:22:55.135Z,82.30
2019-05-29T22:25:24.890Z,81.50
2019-05-29T22:27:55.603Z,81.70
2019-05-29T22:30:25.310Z,81.80
2019-05-29T22:32:55.344Z,81.50
2019-05-29T22:35:25.030Z,81.90
2019-05-29T22:37:55.671Z,82.60
2019-05-29T22:40:25.594Z,81.80
2019-05-29T22:42:55.658Z,81.60
2019-05-29T22:45:25.134Z,82.10
2019-05-29T22:47:55.779Z,81.90
2019-05-29T22:50:25.606Z,82.10
2019-05-29T22:52:55.846Z,83.00
2019-05-29T22:55:25.542Z,81.80
2019-05-29T22:57:55.949Z,82.00
2019-05-29T23:00:25.734Z,81.90
2019-05-29T23:02:56.112Z,81.70
2019-05-29T23:05:25.821Z,81.90
2019-05-29T23:07:56.094Z,82.00
2019-05-29T23:10:25.947Z,82.20
2019-05-29T23:12:56.390Z,82.40
2019-05-29T23:15:26.043Z,82.60
2019-05-29T23:17:56.395Z,82.80
2019-05-29T23:20:26.041Z,82.90
2019-05-29T23:22:56.498Z,83.00
2019-05-29T23:25:26.278Z,82.80
2019-05-29T23:27:56.954Z,82.90
2019-05-29T23:30:30.162Z,83.00
2019-05-29T23:32:58.950Z,82.90
2019-05-29T23:35:28.654Z,83.20
2019-05-29T23:37:59.172Z,83.30
2019-05-29T23:40:29.050Z,83.10
2019-05-29T23:42:59.459Z,83.50
2019-05-29T23:45:29.250Z,83.70
2019-05-29T23:47:59.633Z,83.50
2019-05-29T23:50:29.275Z,83.50
2019-05-29T23:52:59.647Z,83.50
2019-05-29T23:55:29.203Z,84.00
2019-05-29T23:57:59.831Z,84.40
